createdAt,value
2019-06-01T00:01:44.815Z,81.55
2019-06-01T00:04:13.076Z,81.59
2019-06-01T00:06:42.702Z,82.19
2019-06-01T00:09:11.135Z,82.36
2019-06-01T00:11:39.461Z,82.42
2019-06-01T00:14:07.831Z,82.94
2019-06-01T00:16:36.141Z,83.67
2019-06-01T00:19:04.436Z,83.97
2019-06-01T00:21:32.718Z,83.78
2019-06-01T00:24:01.025Z,84.03
2019-06-01T00:26:29.337Z,84.84
2019-06-01T00:28:57.638Z,85.68
2019-06-01T00:31:25.950Z,86.34
2019-06-01T00:33:54.242Z,86.83
2019-06-01T00:36:22.574Z,86.52
2019-06-01T00:38:52.013Z,86.30
2019-06-01T00:41:21.287Z,85.95
2019-06-01T00:43:50.464Z,85.75
2019-06-01T00:46:18.929Z,85.75
2019-06-01T00:48:47.874Z,85.76
2019-06-01T00:51:16.148Z,85.70
2019-06-01T00:53:45.365Z,85.62
2019-06-01T00:56:13.746Z,85.00
2019-06-01T00:58:43.543Z,84.98
2019-06-01T01:01:12.836Z,84.89
2019-06-01T01:03:41.152Z,85.42
2019-06-01T01:06:09.517Z,85.81
2019-06-01T01:08:37.899Z,85.47
2019-06-01T01:11:06.182Z,86.14
2019-06-01T01:13:34.570Z,86.05
2019-06-01T01:16:02.863Z,86.37
2019-06-01T01:18:31.858Z,86.40
2019-06-01T01:21:00.191Z,86.55
2019-06-01T01:23:28.516Z,86.60
2019-06-01T01:25:56.842Z,86.90
2019-06-01T01:28:25.133Z,87.32
2019-06-01T01:31:08.350Z,87.27
2019-06-01T01:33:23.467Z,87.14
2019-06-01T01:35:52.598Z,87.16
2019-06-01T01:38:21.848Z,87.44
2019-06-01T01:40:50.221Z,87.68
2019-06-01T01:43:18.567Z,88.12
2019-06-01T01:45:46.855Z,88.13
2019-06-01T01:48:15.209Z,87.75
2019-06-01T01:50:43.457Z,88.30
2019-06-01T01:53:11.837Z,88.67
2019-06-01T01:55:40.155Z,87.96
2019-06-01T01:58:08.540Z,88.45
2019-06-01T02:00:39.404Z,88.70
2019-06-01T02:03:08.140Z,88.30
2019-06-01T02:05:36.582Z,87.75
2019-06-01T02:08:05.940Z,87.64
2019-06-01T02:10:34.387Z,88.42
2019-06-01T02:13:02.781Z,87.71
2019-06-01T02:15:31.159Z,87.35
2019-06-01T02:18:00.589Z,87.21
2019-06-01T02:20:29.114Z,87.01
2019-06-01T02:22:58.829Z,87.51
2019-06-01T02:25:27.454Z,88.40
2019-06-01T02:27:57.200Z,88.85
2019-06-01T02:30:25.773Z,88.34
2019-06-01T02:32:56.007Z,88.92
2019-06-01T02:35:24.178Z,88.89
2019-06-01T02:37:54.493Z,88.34
2019-06-01T02:40:24.245Z,88.16
2019-06-01T02:42:52.630Z,88.39
2019-06-01T02:45:21.157Z,88.43
2019-06-01T02:47:49.449Z,88.37
2019-06-01T02:50:17.856Z,88.40
2019-06-01T02:52:46.198Z,88.69
2019-06-01T02:55:17.379Z,88.98
2019-06-01T02:57:45.899Z,89.03
2019-06-01T03:00:16.930Z,89.31
2019-06-01T03:02:45.880Z,88.84
2019-06-01T03:05:14.547Z,88.54
2019-06-01T03:07:43.996Z,88.88
2019-06-01T03:10:12.900Z,89.34
2019-06-01T03:12:43.635Z,89.16
2019-06-01T03:15:12.506Z,89.25
2019-06-01T03:17:43.985Z,88.98
2019-06-01T03:20:14.204Z,89.04
2019-06-01T03:22:43.272Z,88.94
2019-06-01T03:25:12.347Z,89.36
2019-06-01T03:27:42.390Z,89.80
2019-06-01T03:30:15.288Z,89.63
2019-06-01T03:32:42.225Z,89.56
2019-06-01T03:35:10.547Z,89.30
2019-06-01T03:37:38.915Z,88.79
2019-06-01T03:40:15.776Z,88.96
2019-06-01T03:42:38.289Z,89.42
2019-06-01T03:45:07.647Z,89.05
2019-06-01T03:47:36.111Z,88.63
2019-06-01T03:50:06.915Z,88.24
2019-06-01T03:52:35.375Z,88.17
2019-06-01T03:55:05.856Z,87.93
2019-06-01T03:57:34.410Z,87.94
2019-06-01T04:00:03.348Z,87.52
2019-06-01T04:02:33.424Z,88.33
2019-06-01T04:05:03.542Z,88.60
2019-06-01T04:07:32.083Z,88.57
2019-06-01T04:10:01.635Z,89.13
2019-06-01T04:12:30.304Z,89.25
2019-06-01T04:14:58.632Z,89.06
2019-06-01T04:17:27.009Z,88.59
2019-06-01T04:19:55.299Z,87.96
2019-06-01T04:22:23.740Z,87.78
2019-06-01T04:24:52.026Z,87.76
2019-06-01T04:27:20.390Z,87.71
2019-06-01T04:29:48.933Z,87.52
2019-06-01T04:32:17.519Z,87.75
2019-06-01T04:34:45.927Z,87.62
2019-06-01T04:37:14.211Z,87.35
2019-06-01T04:39:42.549Z,87.20
2019-06-01T04:42:11.873Z,86.99
2019-06-01T04:44:40.237Z,86.57
2019-06-01T04:47:09.269Z,86.20
2019-06-01T04:49:38.778Z,85.76
2019-06-01T04:52:07.078Z,85.38
2019-06-01T04:54:35.385Z,84.97
2019-06-01T04:57:04.767Z,84.56
2019-06-01T04:59:33.111Z,84.18
2019-06-01T05:02:01.439Z,83.83
2019-06-01T05:04:29.743Z,83.61
2019-06-01T05:06:58.057Z,83.30
2019-06-01T05:09:26.375Z,83.24
2019-06-01T05:11:54.713Z,83.25
2019-06-01T05:14:23.021Z,82.79
2019-06-01T05:16:51.359Z,82.74
2019-06-01T05:19:19.986Z,82.86
2019-06-01T05:21:48.291Z,82.41
2019-06-01T05:24:17.286Z,82.05
2019-06-01T05:26:45.707Z,81.47
2019-06-01T05:29:14.008Z,81.13
2019-06-01T05:31:42.430Z,81.00
2019-06-01T05:34:11.819Z,80.75
2019-06-01T05:36:40.277Z,80.97
2019-06-01T05:39:08.651Z,80.73
2019-06-01T05:41:36.989Z,80.43
2019-06-01T05:44:05.363Z,79.97
2019-06-01T05:46:33.736Z,79.44
2019-06-01T05:49:02.148Z,78.96
2019-06-01T05:51:30.538Z,78.49
2019-06-01T05:53:58.902Z,78.08
2019-06-01T05:56:27.289Z,77.81
2019-06-01T05:58:55.592Z,77.78
2019-06-01T06:01:23.884Z,77.92
2019-06-01T06:03:52.202Z,77.39
2019-06-01T06:06:20.530Z,77.38
2019-06-01T06:08:48.849Z,77.13
2019-06-01T06:11:17.146Z,77.08
2019-06-01T06:13:45.467Z,76.71
2019-06-01T06:16:13.889Z,76.11
2019-06-01T06:18:42.154Z,76.01
2019-06-01T06:21:10.494Z,75.50
2019-06-01T06:23:38.839Z,74.60
2019-06-01T06:26:07.173Z,74.40
2019-06-01T06:28:35.538Z,73.77
2019-06-01T06:31:03.913Z,73.22
2019-06-01T06:33:32.208Z,72.99
2019-06-01T06:36:00.648Z,72.47
2019-06-01T06:38:28.981Z,72.36
2019-06-01T06:40:57.348Z,71.05
2019-06-01T06:43:32.654Z,70.53
2019-06-01T06:45:55.687Z,70.35
2019-06-01T06:48:25.200Z,69.44
2019-06-01T06:50:53.597Z,70.49
2019-06-01T06:53:29.823Z,70.07
2019-06-01T06:55:52.016Z,68.91
2019-06-01T06:58:21.011Z,68.31
2019-06-01T07:00:49.716Z,67.32
2019-06-01T07:03:18.925Z,66.39
2019-06-01T07:05:47.395Z,66.80
2019-06-01T07:08:17.595Z,66.32
2019-06-01T07:10:46.038Z,64.51
2019-06-01T07:13:14.509Z,64.20
2019-06-01T07:15:42.873Z,61.86
2019-06-01T07:18:11.247Z,62.14
2019-06-01T07:20:39.575Z,61.07
2019-06-01T07:23:07.857Z,60.51
2019-06-01T07:25:36.223Z,61.86
2019-06-01T07:28:04.978Z,61.08
2019-06-01T07:30:49.476Z,60.21
2019-06-01T07:33:04.588Z,56.89
2019-06-01T07:35:32.899Z,56.33
2019-06-01T07:38:01.317Z,57.29
2019-06-01T07:40:29.680Z,57.62
2019-06-01T07:42:57.974Z,57.45
2019-06-01T07:45:26.956Z,56.98
2019-06-01T07:47:55.354Z,57.21
2019-06-01T07:50:23.984Z,56.65
2019-06-01T07:52:52.330Z,56.54
2019-06-01T07:55:21.409Z,55.29
2019-06-01T07:57:49.926Z,56.28
2019-06-01T08:00:18.351Z,55.93
2019-06-01T08:02:46.828Z,56.07
2019-06-01T08:05:15.195Z,55.79
2019-06-01T08:07:43.478Z,54.97
2019-06-01T08:10:12.079Z,54.06
2019-06-01T08:12:40.405Z,54.03
2019-06-01T08:15:08.893Z,50.77
2019-06-01T08:17:37.276Z,50.20
2019-06-01T08:20:08.722Z,50.45
2019-06-01T08:22:37.017Z,47.91
2019-06-01T08:25:06.934Z,48.97
2019-06-01T08:27:35.225Z,48.50
2019-06-01T08:30:05.598Z,48.69
2019-06-01T08:32:34.005Z,49.03
2019-06-01T08:35:08.651Z,49.15
2019-06-01T08:37:33.581Z,48.24
2019-06-01T08:40:02.055Z,48.24
2019-06-01T08:42:31.545Z,47.80
2019-06-01T08:45:00.015Z,47.92
2019-06-01T08:47:28.324Z,48.94
2019-06-01T08:49:56.655Z,45.86
2019-06-01T08:52:25.976Z,45.27
2019-06-01T08:54:54.343Z,45.80
2019-06-01T08:57:24.100Z,44.25
2019-06-01T08:59:52.445Z,44.93
2019-06-01T09:02:20.752Z,43.28
2019-06-01T09:04:49.052Z,42.81
2019-06-01T09:07:17.513Z,40.72
2019-06-01T09:09:45.879Z,40.21
2019-06-01T09:12:14.325Z,40.22
2019-06-01T09:14:42.608Z,40.59
2019-06-01T09:17:11.102Z,41.07
2019-06-01T09:19:39.392Z,40.75
2019-06-01T09:24:36.196Z,41.28
2019-06-01T09:27:04.892Z,39.51
2019-06-01T09:29:34.075Z,41.39
2019-06-01T09:32:02.522Z,41.84
2019-06-01T09:34:30.796Z,40.46
2019-06-01T09:36:59.095Z,38.91
2019-06-01T09:39:28.994Z,39.82
2019-06-01T09:41:57.418Z,38.24
2019-06-01T09:44:26.861Z,37.97
2019-06-01T09:46:55.228Z,35.88
2019-06-01T09:49:23.584Z,36.37
2019-06-01T09:51:51.893Z,35.93
2019-06-01T09:54:20.237Z,36.32
2019-06-01T09:56:48.547Z,36.42
2019-06-01T09:59:16.864Z,36.08
2019-06-01T10:01:45.214Z,34.53
2019-06-01T10:04:13.579Z,33.97
2019-06-01T10:06:41.899Z,32.01
2019-06-01T10:09:10.259Z,31.48
2019-06-01T10:11:38.664Z,31.09
2019-06-01T10:14:07.092Z,29.82
2019-06-01T10:16:36.781Z,26.49
2019-06-01T10:19:05.276Z,23.70
2019-06-01T10:21:33.964Z,21.85
2019-06-01T10:24:02.388Z,20.81
2019-06-01T10:26:31.339Z,19.04
2019-06-01T10:28:59.797Z,19.04
2019-06-01T10:31:28.112Z,17.58
2019-06-01T10:33:56.497Z,16.35
2019-06-01T10:36:24.796Z,18.41
2019-06-01T10:38:53.175Z,18.88
2019-06-01T10:41:21.477Z,18.32
2019-06-01T10:43:49.764Z,17.79
2019-06-01T10:46:18.077Z,17.84
2019-06-01T10:48:46.380Z,16.83
2019-06-01T10:51:14.706Z,17.60
2019-06-01T10:53:43.834Z,15.13
2019-06-01T10:56:12.277Z,14.13
2019-06-01T10:58:57.637Z,14.91
2019-06-01T11:01:10.559Z,15.28
2019-06-01T11:03:38.859Z,16.23
2019-06-01T11:06:07.221Z,16.25
2019-06-01T11:08:37.024Z,15.88
2019-06-01T11:11:05.516Z,14.12
2019-06-01T11:13:35.020Z,12.00
2019-06-01T11:16:03.455Z,10.73
2019-06-01T11:18:33.128Z,9.81
2019-06-01T11:21:01.591Z,8.81
2019-06-01T11:23:29.915Z,8.82
2019-06-01T11:25:58.233Z,8.94
2019-06-01T11:28:26.516Z,9.12
2019-06-01T11:30:54.822Z,8.62
2019-06-01T11:33:23.207Z,9.19
2019-06-01T11:35:51.622Z,8.84
2019-06-01T11:38:19.930Z,8.53
2019-06-01T11:40:48.227Z,8.33
2019-06-01T11:43:16.532Z,7.77
2019-06-01T11:45:45.249Z,7.24
2019-06-01T11:48:13.689Z,7.27
2019-06-01T11:50:43.120Z,7.40
2019-06-01T11:53:11.473Z,6.89
2019-06-01T11:55:39.783Z,7.01
2019-06-01T11:58:08.253Z,6.69
2019-06-01T12:00:37.522Z,8.97
2019-06-01T12:05:26.423Z,7.88
2019-06-01T12:07:54.702Z,8.49
2019-06-01T12:10:22.996Z,8.87
2019-06-01T12:12:51.462Z,8.31
2019-06-01T12:15:20.313Z,8.50
2019-06-01T12:17:48.639Z,7.99
2019-06-01T12:20:17.264Z,8.19
2019-06-01T12:22:45.555Z,8.70
2019-06-01T12:25:14.098Z,8.54
2019-06-01T12:27:44.052Z,8.45
2019-06-01T12:30:12.502Z,8.57
2019-06-01T12:32:41.918Z,7.72
2019-06-01T12:35:10.986Z,7.71
2019-06-01T12:37:58.328Z,7.70
2019-06-01T12:40:09.840Z,7.19
2019-06-01T12:42:39.606Z,7.33
2019-06-01T12:45:08.858Z,8.48
2019-06-01T12:47:37.182Z,7.57
2019-06-01T12:50:07.246Z,7.44
2019-06-01T12:52:35.612Z,7.91
2019-06-01T12:55:04.919Z,7.54
2019-06-01T12:57:33.201Z,7.64
2019-06-01T13:00:01.589Z,7.44
2019-06-01T13:02:29.925Z,6.58
2019-06-01T13:04:58.247Z,6.56
2019-06-01T13:07:26.591Z,6.03
2019-06-01T13:09:54.883Z,6.14
2019-06-01T13:12:23.272Z,6.49
2019-06-01T13:14:52.239Z,6.23
2019-06-01T13:17:20.902Z,6.62
2019-06-01T13:19:49.624Z,7.14
2019-06-01T13:22:18.020Z,7.37
2019-06-01T13:24:47.755Z,7.28
2019-06-01T13:27:16.166Z,7.30
2019-06-01T13:29:45.715Z,7.52
2019-06-01T13:32:14.321Z,7.40
2019-06-01T13:34:42.762Z,7.22
2019-06-01T13:37:11.153Z,6.87
2019-06-01T13:39:39.435Z,7.28
2019-06-01T13:42:07.837Z,7.78
2019-06-01T13:44:36.126Z,7.56
2019-06-01T13:47:04.517Z,7.50
2019-06-01T13:49:32.898Z,7.43
2019-06-01T13:52:01.213Z,7.28
2019-06-01T13:54:29.523Z,7.87
2019-06-01T13:56:57.918Z,8.21
2019-06-01T13:59:26.287Z,8.50
2019-06-01T14:01:55.394Z,8.26
2019-06-01T14:04:23.749Z,8.40
2019-06-01T14:06:53.133Z,8.09
2019-06-01T14:09:22.143Z,7.67
2019-06-01T14:11:51.435Z,8.18
2019-06-01T14:14:19.820Z,8.17
2019-06-01T14:16:49.418Z,8.44
2019-06-01T14:19:17.919Z,8.91
2019-06-01T14:21:47.631Z,8.69
2019-06-01T14:24:16.214Z,8.45
2019-06-01T14:26:45.945Z,9.03
2019-06-01T14:29:14.375Z,8.92
2019-06-01T14:31:44.356Z,8.83
2019-06-01T14:34:12.640Z,9.48
2019-06-01T14:36:41.123Z,9.59
2019-06-01T14:39:09.490Z,9.92
2019-06-01T14:41:37.818Z,10.22
2019-06-01T14:44:06.278Z,10.34
2019-06-01T14:46:34.657Z,10.89
2019-06-01T14:49:02.986Z,10.42
2019-06-01T14:51:31.282Z,10.95
2019-06-01T14:53:59.614Z,11.62
2019-06-01T14:56:27.916Z,12.34
2019-06-01T14:58:56.230Z,12.61
2019-06-01T15:01:32.344Z,13.51
2019-06-01T15:03:54.782Z,14.15
2019-06-01T15:06:23.186Z,13.75
2019-06-01T15:09:13.082Z,13.32
2019-06-01T15:11:21.636Z,13.18
2019-06-01T15:13:50.325Z,12.96
2019-06-01T15:16:18.736Z,12.97
2019-06-01T15:18:47.124Z,13.23
2019-06-01T15:21:15.495Z,13.61
2019-06-01T15:23:43.843Z,13.67
2019-06-01T15:26:12.220Z,13.59
2019-06-01T15:28:40.668Z,14.14
2019-06-01T15:31:09.015Z,13.49
2019-06-01T15:33:37.304Z,12.51
2019-06-01T15:36:05.689Z,12.76
2019-06-01T15:38:33.981Z,13.03
2019-06-01T15:41:02.440Z,13.20
2019-06-01T15:43:30.798Z,13.76
2019-06-01T15:45:59.829Z,12.81
2019-06-01T15:48:28.253Z,13.02
2019-06-01T15:51:02.479Z,12.94
2019-06-01T15:53:26.651Z,12.79
2019-06-01T15:55:55.091Z,12.90
2019-06-01T15:58:23.502Z,13.10
2019-06-01T16:00:52.746Z,14.12
2019-06-01T16:03:21.259Z,13.70
2019-06-01T16:05:49.547Z,13.87
2019-06-01T16:08:18.042Z,14.38
2019-06-01T16:10:46.429Z,14.27
2019-06-01T16:13:14.742Z,14.95
2019-06-01T16:15:43.126Z,14.91
2019-06-01T16:18:11.476Z,15.15
2019-06-01T16:20:39.880Z,15.16
2019-06-01T16:23:08.187Z,15.61
2019-06-01T16:25:36.497Z,15.48
2019-06-01T16:28:05.725Z,16.15
2019-06-01T16:30:34.229Z,16.00
2019-06-01T16:33:02.943Z,16.49
2019-06-01T16:35:31.358Z,16.46
2019-06-01T16:38:02.306Z,16.57
2019-06-01T16:40:29.848Z,16.93
2019-06-01T16:42:59.355Z,17.89
2019-06-01T16:45:27.822Z,18.14
2019-06-01T16:47:57.332Z,17.51
2019-06-01T16:50:25.803Z,17.43
2019-06-01T16:52:54.191Z,17.67
2019-06-01T16:55:22.588Z,17.97
2019-06-01T16:57:50.978Z,17.80
2019-06-01T17:00:19.768Z,18.03
2019-06-01T17:02:48.078Z,18.42
2019-06-01T17:05:16.486Z,19.21
2019-06-01T17:07:44.807Z,19.30
2019-06-01T17:10:25.823Z,19.00
2019-06-01T17:12:44.595Z,18.35
2019-06-01T17:15:13.059Z,18.78
2019-06-01T17:17:41.529Z,18.80
2019-06-01T17:20:32.653Z,18.58
2019-06-01T17:23:02.927Z,19.20
2019-06-01T17:25:31.025Z,19.10
2019-06-01T17:28:00.152Z,19.28
2019-06-01T17:30:28.611Z,19.85
2019-06-01T17:32:58.120Z,19.80
2019-06-01T17:35:26.619Z,20.02
2019-06-01T17:37:54.944Z,20.55
2019-06-01T17:40:36.571Z,20.88
2019-06-01T17:42:53.499Z,20.62
2019-06-01T17:45:21.834Z,21.00
2019-06-01T17:47:50.161Z,20.89
2019-06-01T17:50:20.272Z,20.97
2019-06-01T17:52:48.698Z,21.18
2019-06-01T17:55:35.375Z,20.56
2019-06-01T17:58:05.451Z,20.86
2019-06-01T18:00:34.034Z,21.59
2019-06-01T18:03:03.486Z,22.31
2019-06-01T18:05:32.146Z,22.74
2019-06-01T18:08:01.759Z,22.89
2019-06-01T18:10:30.163Z,23.20
2019-06-01T18:12:58.560Z,23.64
2019-06-01T18:15:27.249Z,23.30
2019-06-01T18:17:55.634Z,23.85
2019-06-01T18:20:23.956Z,24.11
2019-06-01T18:22:52.322Z,24.18
2019-06-01T18:25:23.211Z,24.98
2019-06-01T18:27:51.628Z,24.64
2019-06-01T18:30:20.237Z,25.41
2019-06-01T18:32:48.785Z,25.47
2019-06-01T18:35:19.676Z,25.93
2019-06-01T18:37:47.295Z,26.25
2019-06-01T18:40:17.063Z,27.21
2019-06-01T18:42:47.123Z,28.03
2019-06-01T18:45:16.363Z,28.77
2019-06-01T18:47:44.954Z,29.53
2019-06-01T18:50:16.162Z,30.60
2019-06-01T18:52:43.901Z,31.99
2019-06-01T18:55:12.716Z,33.67
2019-06-01T18:57:42.208Z,34.67
2019-06-01T19:00:13.845Z,35.69
2019-06-01T19:02:42.284Z,36.62
2019-06-01T19:05:11.148Z,37.03
2019-06-01T19:07:39.430Z,37.27
2019-06-01T19:10:09.475Z,38.56
2019-06-01T19:12:37.897Z,39.17
2019-06-01T19:15:23.217Z,39.19
2019-06-01T19:17:39.541Z,40.66
2019-06-01T19:20:08.697Z,44.09
2019-06-01T19:22:37.144Z,44.26
2019-06-01T19:25:06.676Z,44.85
2019-06-01T19:27:35.249Z,45.39
2019-06-01T19:30:04.809Z,45.15
2019-06-01T19:32:33.211Z,45.68
2019-06-01T19:35:01.681Z,45.16
2019-06-01T19:37:30.055Z,45.56
2019-06-01T19:39:58.739Z,45.60
2019-06-01T19:42:27.142Z,47.01
2019-06-01T19:44:55.449Z,47.34
2019-06-01T19:47:23.918Z,47.78
2019-06-01T19:49:52.234Z,49.64
2019-06-01T19:52:20.636Z,49.72
2019-06-01T19:54:49.115Z,52.15
2019-06-01T19:57:21.416Z,52.15
2019-06-01T19:59:47.648Z,51.65
2019-06-01T20:02:29.308Z,51.40
2019-06-01T20:04:46.230Z,52.27
2019-06-01T20:07:15.136Z,52.90
2019-06-01T20:09:43.525Z,53.13
2019-06-01T20:12:16.352Z,53.88
2019-06-01T20:14:41.950Z,53.77
2019-06-01T20:17:11.737Z,54.15
2019-06-01T20:19:40.077Z,55.47
2019-06-01T20:22:08.540Z,56.01
2019-06-01T20:24:36.832Z,55.79
2019-06-01T20:27:05.221Z,56.18
2019-06-01T20:29:33.612Z,56.77
2019-06-01T20:32:01.955Z,57.01
2019-06-01T20:34:30.492Z,57.18
2019-06-01T20:36:58.803Z,57.06
2019-06-01T20:39:27.237Z,57.35
2019-06-01T20:41:55.537Z,57.98
2019-06-01T20:44:23.931Z,58.38
2019-06-01T20:46:52.275Z,59.23
2019-06-01T20:49:20.758Z,59.37
2019-06-01T20:51:49.112Z,59.65
2019-06-01T20:54:17.437Z,59.92
2019-06-01T20:56:45.752Z,60.36
2019-06-01T20:59:17.190Z,61.00
2019-06-01T21:01:44.238Z,63.78
2019-06-01T21:04:14.069Z,63.99
2019-06-01T21:06:42.460Z,64.23
2019-06-01T21:09:10.858Z,63.21
2019-06-01T21:11:39.226Z,63.62
2019-06-01T21:14:07.628Z,64.57
2019-06-01T21:16:35.999Z,64.85
2019-06-01T21:19:04.552Z,64.87
2019-06-01T21:21:32.903Z,65.83
2019-06-01T21:24:01.215Z,66.03
2019-06-01T21:26:32.593Z,65.57
2019-06-01T21:29:00.977Z,65.91
2019-06-01T21:31:29.347Z,66.54
2019-06-01T21:33:57.737Z,66.54
2019-06-01T21:36:26.084Z,66.72
2019-06-01T21:38:54.383Z,66.91
2019-06-01T21:41:23.728Z,67.59
2019-06-01T21:43:52.272Z,67.42
2019-06-01T21:46:21.705Z,67.40
2019-06-01T21:48:50.034Z,67.91
2019-06-01T21:51:18.369Z,68.10
2019-06-01T21:53:46.736Z,68.26
2019-06-01T21:56:18.322Z,68.92
2019-06-01T21:58:45.204Z,69.32
2019-06-01T22:01:13.751Z,69.42
2019-06-01T22:03:42.086Z,69.60
2019-06-01T22:06:10.404Z,70.31
2019-06-01T22:08:38.714Z,70.90
2019-06-01T22:11:07.015Z,71.21
2019-06-01T22:13:35.324Z,71.46
2019-06-01T22:16:03.737Z,71.64
2019-06-01T22:18:32.101Z,71.97
2019-06-01T22:21:00.430Z,71.71
2019-06-01T22:23:28.768Z,72.20
2019-06-01T22:25:57.106Z,72.29
2019-06-01T22:28:26.337Z,72.44
2019-06-01T22:30:54.770Z,72.32
2019-06-01T22:33:23.197Z,72.82
2019-06-01T22:35:52.473Z,72.75
2019-06-01T22:38:21.636Z,72.86
2019-06-01T22:40:50.083Z,73.21
2019-06-01T22:43:35.152Z,74.29
2019-06-01T22:45:48.669Z,74.62
2019-06-01T22:48:16.987Z,75.06
2019-06-01T22:50:45.308Z,75.26
2019-06-01T22:53:13.601Z,75.54
2019-06-01T22:55:41.992Z,76.26
2019-06-01T22:58:10.390Z,76.42
2019-06-01T23:00:38.709Z,76.87
2019-06-01T23:03:07.192Z,77.27
2019-06-01T23:05:35.495Z,77.60
2019-06-01T23:08:03.883Z,77.50
2019-06-01T23:10:35.444Z,77.69
2019-06-01T23:13:02.221Z,78.46
2019-06-01T23:15:31.907Z,78.89
2019-06-01T23:18:00.263Z,79.10
2019-06-01T23:20:29.914Z,79.31
2019-06-01T23:22:58.458Z,79.10
2019-06-01T23:25:26.817Z,79.10
2019-06-01T23:27:55.132Z,79.30
2019-06-01T23:30:24.287Z,79.05
2019-06-01T23:32:52.591Z,78.93
2019-06-01T23:35:20.921Z,78.83
2019-06-01T23:37:50.380Z,78.81
2019-06-01T23:40:18.915Z,78.98
2019-06-01T23:42:47.299Z,78.85
2019-06-01T23:45:17.040Z,79.30
2019-06-01T23:47:45.460Z,79.64
2019-06-01T23:50:13.844Z,80.00
2019-06-01T23:52:42.150Z,79.83
2019-06-01T23:55:10.583Z,79.96
2019-06-01T23:57:38.905Z,80.98
